createdAt,value
2022-12-19T00:01:35.402Z,98699.09
2022-12-19T00:03:38.115Z,98703.88
2022-12-19T00:05:42.123Z,98712.19
2022-12-19T00:07:48.253Z,98720.44
2022-12-19T00:09:50.887Z,98704.00
2022-12-19T00:11:54.084Z,98711.53
2022-12-19T00:13:56.955Z,98704.72
2022-12-19T00:16:07.792Z,98707.81
2022-12-19T00:18:10.519Z,98734.09
2022-12-19T00:20:13.228Z,98718.38
2022-12-19T00:22:21.308Z,98722.66
2022-12-19T00:24:23.988Z,98723.38
2022-12-19T00:26:32.004Z,98724.41
2022-12-19T00:28:34.894Z,98710.69
2022-12-19T00:30:37.586Z,98728.41
2022-12-19T00:32:40.542Z,98739.88
2022-12-19T00:34:43.064Z,98730.44
2022-12-19T00:36:45.746Z,98737.19
2022-12-19T00:38:49.139Z,98722.00
2022-12-19T00:40:51.675Z,98729.81
2022-12-19T00:42:54.285Z,98745.81
2022-12-19T00:44:58.052Z,98746.78
2022-12-19T00:47:00.619Z,98739.00
2022-12-19T00:49:03.882Z,98750.31
2022-12-19T00:51:11.195Z,98746.63
2022-12-19T00:53:13.682Z,98765.72
2022-12-19T00:55:31.573Z,98760.34
2022-12-19T00:57:34.129Z,98761.09
2022-12-19T00:59:36.738Z,98756.28
2022-12-19T01:01:41.819Z,98762.06
2022-12-19T01:04:04.400Z,98774.25
2022-12-19T01:06:08.590Z,98782.28
2022-12-19T01:08:11.348Z,98772.78
2022-12-19T01:10:13.915Z,98788.78
2022-12-19T01:12:35.034Z,98795.53
2022-12-19T01:14:37.658Z,98803.22
2022-12-19T01:16:40.293Z,98792.50
2022-12-19T01:18:42.842Z,98802.41
2022-12-19T01:20:49.086Z,98804.06
2022-12-19T01:22:51.913Z,98801.25
2022-12-19T01:24:54.469Z,98815.72
2022-12-19T01:26:57.182Z,98828.31
2022-12-19T01:28:59.843Z,98824.97
2022-12-19T01:31:06.151Z,98812.28
2022-12-19T01:33:12.786Z,98811.72
2022-12-19T01:35:21.284Z,98813.72
2022-12-19T01:37:24.446Z,98801.03
2022-12-19T01:39:27.091Z,98813.50
2022-12-19T01:41:33.001Z,98823.41
2022-12-19T01:43:56.740Z,98823.88
2022-12-19T01:46:06.326Z,98814.69
2022-12-19T01:48:26.452Z,98817.38
2022-12-19T01:50:37.750Z,98829.06
2022-12-19T01:52:42.823Z,98841.84
2022-12-19T01:54:45.512Z,98828.69
2022-12-19T01:56:52.149Z,98837.78
2022-12-19T01:59:05.114Z,98820.78
2022-12-19T02:01:09.417Z,98835.47
2022-12-19T02:03:35.543Z,98835.47
2022-12-19T02:05:39.441Z,98844.56
2022-12-19T02:07:43.526Z,98841.88
2022-12-19T02:09:52.429Z,98848.16
2022-12-19T02:12:00.771Z,98838.72
2022-12-19T02:14:03.477Z,98854.66
2022-12-19T02:16:48.357Z,98852.69
2022-12-19T02:19:06.060Z,98861.91
2022-12-19T02:21:34.019Z,98860.75
2022-12-19T02:23:36.519Z,98866.69
2022-12-19T02:26:03.175Z,98862.34
2022-12-19T02:28:08.456Z,98863.16
2022-12-19T02:30:52.791Z,98865.03
2022-12-19T02:33:08.899Z,98882.28
2022-12-19T02:35:22.933Z,98879.00
2022-12-19T02:37:33.720Z,98872.25
2022-12-19T02:39:46.845Z,98866.69
2022-12-19T02:41:56.343Z,98862.47
2022-12-19T02:43:59.248Z,98876.56
2022-12-19T02:46:04.388Z,98880.06
2022-12-19T02:48:09.180Z,98870.28
2022-12-19T02:50:13.281Z,98893.78
2022-12-19T02:52:21.712Z,98889.47
2022-12-19T02:54:24.964Z,98896.81
2022-12-19T02:56:51.088Z,98889.91
2022-12-19T02:59:09.872Z,98895.16
2022-12-19T03:01:39.584Z,98887.34
2022-12-19T03:03:59.809Z,98890.44
2022-12-19T03:06:35.126Z,98908.34
2022-12-19T03:08:53.796Z,98909.25
2022-12-19T03:11:02.888Z,98910.09
2022-12-19T03:13:11.728Z,98910.75
2022-12-19T03:15:15.602Z,98921.66
2022-12-19T03:17:19.795Z,98912.78
2022-12-19T03:19:22.913Z,98918.09
2022-12-19T03:21:40.183Z,98924.56
2022-12-19T03:23:45.014Z,98925.22
2022-12-19T03:25:52.920Z,98932.78
2022-12-19T03:27:59.200Z,98933.38
2022-12-19T03:30:11.348Z,98946.22
2022-12-19T03:32:16.029Z,98939.69
2022-12-19T03:34:28.644Z,98954.47
2022-12-19T03:36:37.727Z,98955.69
2022-12-19T03:38:42.827Z,98948.94
2022-12-19T03:40:47.055Z,98967.16
2022-12-19T03:43:11.601Z,98957.63
2022-12-19T03:45:23.683Z,98966.56
2022-12-19T03:47:35.383Z,98980.03
2022-12-19T03:49:38.318Z,98973.25
2022-12-19T03:51:54.899Z,98975.72
2022-12-19T03:54:17.265Z,98987.00
2022-12-19T03:56:26.621Z,98987.41
2022-12-19T03:58:34.523Z,98989.91
2022-12-19T04:00:40.732Z,98992.63
2022-12-19T04:02:47.767Z,98991.66
2022-12-19T04:05:10.824Z,99019.97
2022-12-19T04:07:15.286Z,99015.25
2022-12-19T04:09:22.625Z,99008.31
2022-12-19T04:11:30.164Z,99037.69
2022-12-19T04:13:42.421Z,99009.78
2022-12-19T04:16:08.008Z,99025.63
2022-12-19T04:18:13.898Z,99017.88
2022-12-19T04:20:19.278Z,99032.25
2022-12-19T04:22:31.456Z,99025.72
2022-12-19T04:24:37.972Z,99032.53
2022-12-19T04:26:44.261Z,99047.09
2022-12-19T04:29:00.142Z,99039.94
2022-12-19T04:31:03.986Z,99050.19
2022-12-19T04:33:07.940Z,99052.25
2022-12-19T04:35:10.988Z,99055.97
2022-12-19T04:37:13.709Z,99051.88
2022-12-19T04:39:16.632Z,99059.06
2022-12-19T04:41:19.245Z,99064.19
2022-12-19T04:43:21.846Z,99064.00
2022-12-19T04:45:24.421Z,99071.78
2022-12-19T04:47:27.145Z,99077.34
2022-12-19T04:49:29.722Z,99084.09
2022-12-19T04:51:32.256Z,99093.56
2022-12-19T04:53:35.421Z,99083.50
2022-12-19T04:55:38.023Z,99103.78
2022-12-19T04:57:40.531Z,99095.81
2022-12-19T04:59:43.146Z,99102.13
2022-12-19T05:01:45.913Z,99104.41
2022-12-19T05:03:54.065Z,99108.25
2022-12-19T05:06:08.472Z,99112.13
2022-12-19T05:08:11.084Z,99106.16
2022-12-19T05:10:14.335Z,99117.09
2022-12-19T05:12:17.212Z,99123.25
2022-12-19T05:14:19.879Z,99131.88
2022-12-19T05:16:22.533Z,99127.78
2022-12-19T05:18:25.917Z,99130.28
2022-12-19T05:20:28.471Z,99130.28
2022-12-19T05:22:32.366Z,99139.72
2022-12-19T05:24:34.877Z,99135.00
2022-12-19T05:26:37.857Z,99157.94
2022-12-19T05:28:40.551Z,99156.72
2022-12-19T05:30:47.848Z,99154.66
2022-12-19T05:32:54.566Z,99156.34
2022-12-19T05:34:57.163Z,99157.97
2022-12-19T05:36:59.669Z,99153.03
2022-12-19T05:39:02.863Z,99172.88
2022-12-19T05:41:13.925Z,99163.44
2022-12-19T05:43:16.506Z,99140.72
2022-12-19T05:45:19.443Z,99153.03
2022-12-19T05:47:22.077Z,99170.84
2022-12-19T05:49:24.623Z,99166.72
2022-12-19T05:51:27.821Z,99175.94
2022-12-19T05:53:30.493Z,99182.53
2022-12-19T05:55:33.059Z,99176.16
2022-12-19T05:57:35.898Z,99173.75
2022-12-19T05:59:38.545Z,99199.81
2022-12-19T06:01:41.229Z,99201.84
2022-12-19T06:03:44.434Z,99194.22
2022-12-19T06:05:47.084Z,99204.06
2022-12-19T06:07:49.654Z,99202.66
2022-12-19T06:09:52.305Z,99209.66
2022-12-19T06:11:55.684Z,99202.72
2022-12-19T06:13:58.635Z,99202.28
2022-12-19T06:16:06.143Z,99202.72
2022-12-19T06:18:08.871Z,99211.72
2022-12-19T06:20:12.560Z,99222.38
2022-12-19T06:22:15.365Z,99214.41
2022-12-19T06:24:18.178Z,99228.75
2022-12-19T06:26:22.841Z,99228.97
2022-12-19T06:28:27.188Z,99230.00
2022-12-19T06:30:29.816Z,99243.31
2022-12-19T06:32:37.735Z,99237.19
2022-12-19T06:35:03.141Z,99244.56
2022-12-19T06:37:07.980Z,99250.69
2022-12-19T06:39:14.378Z,99257.28
2022-12-19T06:41:37.179Z,99254.19
2022-12-19T06:43:39.890Z,99264.84
2022-12-19T06:45:42.589Z,99272.00
2022-12-19T06:47:45.255Z,99259.56
2022-12-19T06:49:48.861Z,99275.13
2022-12-19T06:51:51.568Z,99266.72
2022-12-19T06:53:54.344Z,99278.41
2022-12-19T06:55:59.092Z,99284.13
2022-12-19T06:58:01.671Z,99289.44
2022-12-19T07:00:04.526Z,99297.63
2022-12-19T07:02:16.232Z,99296.22
2022-12-19T07:04:32.986Z,99299.31
2022-12-19T07:06:35.946Z,99304.84
2022-12-19T07:08:38.757Z,99302.97
2022-12-19T07:10:41.371Z,99308.50
2022-12-19T07:12:43.938Z,99319.59
2022-12-19T07:14:51.670Z,99326.97
2022-12-19T07:17:00.246Z,99324.13
2022-12-19T07:19:02.929Z,99331.28
2022-12-19T07:21:08.180Z,99333.34
2022-12-19T07:23:20.869Z,99318.34
2022-12-19T07:25:23.687Z,99346.66
2022-12-19T07:27:35.178Z,99342.13
2022-12-19T07:29:38.306Z,99336.41
2022-12-19T07:31:40.979Z,99344.38
2022-12-19T07:33:43.728Z,99352.16
2022-12-19T07:35:46.518Z,99339.66
2022-12-19T07:37:50.819Z,99348.06
2022-12-19T07:39:53.573Z,99351.75
2022-12-19T07:41:56.252Z,99352.56
2022-12-19T07:43:58.905Z,99354.22
2022-12-19T07:46:01.746Z,99342.72
2022-12-19T07:48:07.827Z,99364.66
2022-12-19T07:50:10.538Z,99362.81
2022-12-19T07:52:13.234Z,99367.13
2022-12-19T07:54:15.891Z,99367.16
2022-12-19T07:56:18.638Z,99362.22
2022-12-19T07:58:21.705Z,99367.31
2022-12-19T08:00:24.548Z,99357.91
2022-12-19T08:02:27.294Z,99345.59
2022-12-19T08:04:30.188Z,99350.91
2022-12-19T08:06:37.655Z,99356.84
2022-12-19T08:08:43.563Z,99359.75
2022-12-19T08:10:46.289Z,99367.75
2022-12-19T08:12:49.414Z,99365.06
2022-12-19T08:14:56.953Z,99372.84
2022-12-19T08:19:27.286Z,99368.16
2022-12-19T08:21:30.850Z,99367.72
2022-12-19T08:23:33.652Z,99374.50
2022-12-19T08:25:36.641Z,99367.50
2022-12-19T08:27:39.851Z,99374.03
2022-12-19T08:29:42.670Z,99381.84
2022-12-19T08:31:45.471Z,99378.56
2022-12-19T08:33:48.175Z,99380.59
2022-12-19T08:35:50.989Z,99380.44
2022-12-19T08:37:53.644Z,99371.59
2022-12-19T08:39:56.351Z,99387.56
2022-12-19T08:41:59.151Z,99393.78
2022-12-19T08:44:02.385Z,99401.16
2022-12-19T08:46:06.399Z,99402.81
2022-12-19T08:48:09.241Z,99401.16
2022-12-19T08:50:12.109Z,99403.84
2022-12-19T08:52:14.695Z,99398.13
2022-12-19T08:54:17.351Z,99406.97
2022-12-19T08:56:21.837Z,99402.25
2022-12-19T08:58:25.334Z,99407.59
2022-12-19T09:00:27.905Z,99412.50
2022-12-19T09:02:30.983Z,99406.97
2022-12-19T09:06:02.452Z,99416.81
2022-12-19T09:06:56.655Z,99420.28
2022-12-19T09:09:00.517Z,99426.88
2022-12-19T09:11:06.326Z,99422.72
2022-12-19T09:13:09.099Z,99413.31
2022-12-19T09:15:11.838Z,99412.69
2022-12-19T09:17:14.725Z,99419.28
2022-12-19T09:19:17.498Z,99412.09
2022-12-19T09:21:22.500Z,99419.28
2022-12-19T09:23:28.565Z,99410.84
2022-12-19T09:25:31.167Z,99413.94
2022-12-19T09:28:01.293Z,99416.00
2022-12-19T09:29:56.531Z,99410.44
2022-12-19T09:31:59.306Z,99422.16
2022-12-19T09:34:01.879Z,99419.69
2022-12-19T09:36:05.697Z,99433.22
2022-12-19T09:38:08.302Z,99435.72
2022-12-19T09:40:17.549Z,99429.56
2022-12-19T09:42:41.388Z,99446.78
2022-12-19T09:45:02.734Z,99437.53
2022-12-19T09:47:17.016Z,99432.00
2022-12-19T09:49:30.120Z,99431.81
2022-12-19T09:51:40.808Z,99435.06
2022-12-19T09:54:05.424Z,99427.66
2022-12-19T09:56:15.923Z,99424.00
2022-12-19T09:58:32.035Z,99422.75
2022-12-19T10:00:39.736Z,99423.19
2022-12-19T10:02:57.183Z,99429.94
2022-12-19T10:05:46.895Z,99435.91
2022-12-19T10:08:07.652Z,99425.22
2022-12-19T10:12:46.144Z,99436.09
2022-12-19T10:12:59.428Z,99447.38
2022-12-19T10:15:36.396Z,99443.50
2022-12-19T10:18:12.808Z,99440.84
2022-12-19T10:20:33.176Z,99443.91
2022-12-19T10:23:05.604Z,99449.66
2022-12-19T10:25:12.265Z,99446.16
2022-12-19T10:27:20.803Z,99459.50
2022-12-19T10:29:41.868Z,99456.84
2022-12-19T10:32:19.641Z,99458.91
2022-12-19T10:34:25.275Z,99461.97
2022-12-19T10:37:03.971Z,99451.72
2022-12-19T10:39:06.731Z,99433.84
2022-12-19T10:41:43.843Z,99466.69
2022-12-19T10:43:56.944Z,99459.69
2022-12-19T10:46:03.797Z,99475.91
2022-12-19T10:48:12.152Z,99456.00
2022-12-19T10:50:22.038Z,99465.84
2022-12-19T10:52:52.632Z,99474.47
2022-12-19T10:54:55.229Z,99474.28
2022-12-19T10:57:20.551Z,99476.34
2022-12-19T10:59:23.234Z,99492.53
2022-12-19T11:01:29.932Z,99468.94
2022-12-19T11:03:34.418Z,99485.75
2022-12-19T11:05:47.415Z,99473.63
2022-12-19T11:08:08.516Z,99480.03
2022-12-19T11:11:14.377Z,99487.19
2022-12-19T11:18:15.643Z,99476.31
2022-12-19T11:21:12.798Z,99478.97
2022-12-19T11:22:55.086Z,99501.16
2022-12-19T11:29:38.649Z,99522.50
2022-12-19T11:29:45.132Z,99504.44
2022-12-19T11:30:21.343Z,99503.81
2022-12-19T11:30:47.664Z,99513.03
2022-12-19T11:32:43.616Z,99511.19
2022-12-19T11:34:51.057Z,99510.81
2022-12-19T11:37:17.604Z,99502.22
2022-12-19T11:39:32.805Z,99511.66
2022-12-19T11:42:07.538Z,99512.47
2022-12-19T11:44:29.692Z,99516.38
2022-12-19T11:46:46.935Z,99520.66
2022-12-19T11:49:15.409Z,99511.41
2022-12-19T11:51:58.416Z,99525.38
2022-12-19T11:54:19.098Z,99525.16
2022-12-19T11:56:25.007Z,99519.44
2022-12-19T11:58:29.991Z,99528.06
2022-12-19T12:00:35.032Z,99530.50
2022-12-19T12:03:06.055Z,99521.88
2022-12-19T12:05:20.988Z,99535.44
2022-12-19T12:08:52.595Z,99528.84
2022-12-19T12:16:42.475Z,99532.34
2022-12-19T12:22:09.401Z,99539.09
2022-12-19T12:31:00.020Z,99546.06
2022-12-19T12:31:15.619Z,99560.22
2022-12-19T12:31:29.275Z,99558.38
2022-12-19T12:31:32.067Z,99563.91
2022-12-19T12:31:49.443Z,99577.25
2022-12-19T12:32:03.752Z,99571.88
2022-12-19T12:35:52.122Z,99572.94
2022-12-19T12:35:54.205Z,99584.78
2022-12-19T12:40:46.213Z,99601.56
2022-12-19T12:43:01.776Z,99604.28
2022-12-19T12:45:19.718Z,99609.59
2022-12-19T12:47:27.159Z,99604.69
2022-12-19T12:49:37.892Z,99625.19
2022-12-19T12:51:41.287Z,99622.53
2022-12-19T12:53:47.073Z,99612.91
2022-12-19T12:55:51.693Z,99619.44
2022-12-19T12:57:55.559Z,99606.31
2022-12-19T13:00:16.965Z,99614.50
2022-12-19T13:02:33.582Z,99613.66
2022-12-19T13:04:54.055Z,99630.91
2022-12-19T13:07:26.521Z,99622.47
2022-12-19T13:09:30.730Z,99621.84
2022-12-19T13:11:57.074Z,99631.69
2022-12-19T13:14:00.213Z,99631.88
2022-12-19T13:16:43.027Z,99628.78
2022-12-19T13:19:04.636Z,99632.66
2022-12-19T13:21:08.827Z,99634.06
2022-12-19T13:23:33.540Z,99628.50
2022-12-19T13:25:36.842Z,99645.13
2022-12-19T13:27:40.790Z,99649.44
2022-12-19T13:30:01.561Z,99651.91
2022-12-19T13:32:13.133Z,99648.84
2022-12-19T13:34:19.698Z,99647.63
2022-12-19T13:40:00.503Z,99643.91
2022-12-19T13:40:01.197Z,99667.50
2022-12-19T13:42:06.984Z,99649.88
2022-12-19T13:44:09.816Z,99658.28
2022-12-19T13:46:37.582Z,99669.94
2022-12-19T13:48:53.234Z,99666.03
2022-12-19T13:50:57.796Z,99671.38
2022-12-19T13:53:00.512Z,99695.53
2022-12-19T13:55:03.812Z,99703.13
2022-12-19T13:57:28.306Z,99688.16
2022-12-19T13:59:36.925Z,99692.84
2022-12-19T14:01:41.231Z,99692.22
2022-12-19T14:03:45.672Z,99691.41
2022-12-19T14:06:17.570Z,99691.81
2022-12-19T14:08:19.704Z,99698.13
2022-12-19T14:11:35.888Z,99694.81
2022-12-19T14:13:42.574Z,99705.66
2022-12-19T14:15:36.943Z,99702.28
2022-12-19T14:17:39.662Z,99705.16
2022-12-19T14:19:48.631Z,99696.53
2022-12-19T14:22:11.570Z,99694.69
2022-12-19T14:24:25.721Z,99694.06
2022-12-19T14:28:26.823Z,99706.34
2022-12-19T14:30:19.395Z,99713.72
2022-12-19T14:33:40.242Z,99712.25
2022-12-19T14:35:46.505Z,99721.25
2022-12-19T14:36:55.933Z,99706.88
2022-12-19T14:39:25.484Z,99706.88
2022-12-19T14:41:46.470Z,99700.53
2022-12-19T14:43:59.897Z,99715.28
2022-12-19T14:53:10.789Z,99715.47
2022-12-19T14:54:01.313Z,99723.47
2022-12-19T14:54:28.611Z,99712.00
2022-12-19T14:57:04.769Z,99721.34
2022-12-19T14:59:41.366Z,99730.53
2022-12-19T15:01:55.978Z,99738.94
2022-12-19T15:04:52.466Z,99734.00
2022-12-19T15:07:10.037Z,99748.69
2022-12-19T15:10:40.828Z,99742.75
2022-12-19T15:12:09.813Z,99747.44
2022-12-19T15:14:54.847Z,99755.16
2022-12-19T15:17:22.166Z,99742.53
2022-12-19T15:19:24.736Z,99737.78
2022-12-19T15:21:29.852Z,99735.69
2022-12-19T15:23:32.948Z,99746.13
2022-12-19T15:26:02.905Z,99741.00
2022-12-19T15:27:58.375Z,99747.69
2022-12-19T15:30:01.051Z,99749.53
2022-12-19T15:32:04.549Z,99752.75
2022-12-19T15:34:40.447Z,99745.78
2022-12-19T15:36:47.358Z,99766.63
2022-12-19T15:38:49.955Z,99758.19
2022-12-19T15:40:52.633Z,99767.56
2022-12-19T15:42:58.616Z,99767.34
2022-12-19T15:45:03.058Z,99761.59
2022-12-19T15:47:29.828Z,99779.75
2022-12-19T15:49:35.329Z,99772.59
2022-12-19T15:51:38.112Z,99770.03
2022-12-19T15:53:41.569Z,99775.53
2022-12-19T15:55:44.352Z,99778.56
2022-12-19T15:57:51.843Z,99773.41
2022-12-19T15:59:56.675Z,99765.66
2022-12-19T16:01:59.545Z,99784.44
2022-12-19T16:04:03.704Z,99764.09
2022-12-19T16:06:13.585Z,99779.56
2022-12-19T16:08:19.724Z,99756.19
2022-12-19T16:10:22.711Z,99765.34
2022-12-19T16:12:34.077Z,99756.28
2022-12-19T16:14:36.684Z,99754.81
2022-12-19T16:16:39.984Z,99759.66
2022-12-19T16:18:45.529Z,99771.66
2022-12-19T16:20:48.736Z,99771.66
2022-12-19T16:22:51.629Z,99757.28
2022-12-19T16:24:55.016Z,99772.13
2022-12-19T16:26:59.057Z,99772.03
2022-12-19T16:29:02.427Z,99775.06
2022-12-19T16:31:15.835Z,99762.22
2022-12-19T16:33:21.694Z,99766.25
2022-12-19T16:35:54.879Z,99767.09
2022-12-19T16:37:49.615Z,99765.69
2022-12-19T16:39:52.199Z,99769.63
2022-12-19T16:41:55.002Z,99786.88
2022-12-19T16:43:57.825Z,99778.91
2022-12-19T16:46:01.770Z,99781.56
2022-12-19T16:48:18.808Z,99772.56
2022-12-19T16:50:28.537Z,99784.41
2022-12-19T16:52:31.143Z,99785.69
2022-12-19T16:54:33.864Z,99785.53
2022-12-19T16:56:42.911Z,99794.47
2022-12-19T16:58:45.520Z,99799.34
2022-12-19T17:00:49.536Z,99798.88
2022-12-19T17:02:59.596Z,99794.38
2022-12-19T17:05:02.191Z,99788.59
2022-12-19T17:07:10.259Z,99779.91
2022-12-19T17:09:21.710Z,99786.41
2022-12-19T17:11:28.419Z,99776.97
2022-12-19T17:13:31.259Z,99791.25
2022-12-19T17:15:39.002Z,99790.63
2022-12-19T17:17:41.934Z,99779.88
2022-12-19T17:19:46.038Z,99784.00
2022-12-19T17:21:49.637Z,99786.19
2022-12-19T17:23:52.515Z,99795.81
2022-12-19T17:25:56.544Z,99786.53
2022-12-19T17:27:59.219Z,99780.41
2022-12-19T17:30:01.815Z,99784.19
2022-12-19T17:32:09.008Z,99786.00
2022-12-19T17:34:29.633Z,99779.88
2022-12-19T17:36:37.548Z,99769.84
2022-12-19T17:38:41.130Z,99782.84
2022-12-19T17:40:45.013Z,99783.84
2022-12-19T17:42:48.082Z,99776.59
2022-12-19T17:44:51.421Z,99784.72
2022-12-19T17:46:54.014Z,99772.63
2022-12-19T17:48:56.656Z,99791.75
2022-12-19T17:51:00.295Z,99795.13
2022-12-19T17:53:02.956Z,99794.63
2022-12-19T17:55:21.351Z,99790.03
2022-12-19T17:57:24.132Z,99784.25
2022-12-19T17:59:26.753Z,99787.06
2022-12-19T18:01:30.049Z,99779.47
2022-12-19T18:03:34.000Z,99779.16
2022-12-19T18:05:37.380Z,99784.84
2022-12-19T18:07:39.960Z,99787.72
2022-12-19T18:09:43.199Z,99794.34
2022-12-19T18:11:46.687Z,99784.06
2022-12-19T18:13:49.677Z,99799.97
2022-12-19T18:15:55.978Z,99794.38
2022-12-19T18:17:58.762Z,99799.69
2022-12-19T18:20:01.503Z,99790.91
2022-12-19T18:22:13.500Z,99791.59
2022-12-19T18:24:16.782Z,99790.75
2022-12-19T18:26:19.606Z,99786.63
2022-12-19T18:28:22.249Z,99799.44
2022-12-19T18:30:25.918Z,99780.88
2022-12-19T18:32:28.818Z,99797.16
2022-12-19T18:34:33.434Z,99795.47
2022-12-19T18:36:42.676Z,99799.16
2022-12-19T18:38:45.446Z,99787.94
2022-12-19T18:40:50.266Z,99787.09
2022-12-19T18:42:52.993Z,99798.88
2022-12-19T18:44:55.561Z,99799.84
2022-12-19T18:46:59.165Z,99790.66
2022-12-19T18:49:01.771Z,99801.69
2022-12-19T18:51:05.520Z,99803.81
2022-12-19T18:53:13.134Z,99797.56
2022-12-19T18:55:21.354Z,99800.19
2022-12-19T18:57:24.021Z,99790.25
2022-12-19T18:59:26.822Z,99792.28
2022-12-19T19:01:29.644Z,99792.44
2022-12-19T19:03:36.489Z,99789.31
2022-12-19T19:05:40.682Z,99793.63
2022-12-19T19:07:44.329Z,99784.84
2022-12-19T19:09:47.074Z,99784.38
2022-12-19T19:11:49.734Z,99786.53
2022-12-19T19:13:53.896Z,99791.50
2022-12-19T19:16:02.865Z,99783.91
2022-12-19T19:18:07.918Z,99793.00
2022-12-19T19:20:10.981Z,99785.88
2022-12-19T19:22:13.568Z,99783.91
2022-12-19T19:24:19.123Z,99797.16
2022-12-19T19:26:22.355Z,99790.19
2022-12-19T19:28:24.998Z,99779.44
2022-12-19T19:30:27.634Z,99791.84
2022-12-19T19:32:30.395Z,99802.09
2022-12-19T19:34:35.401Z,99785.88
2022-12-19T19:36:41.611Z,99783.56
2022-12-19T19:38:47.541Z,99791.69
2022-12-19T19:40:50.570Z,99794.19
2022-12-19T19:42:53.165Z,99789.72
2022-12-19T19:44:55.917Z,99787.22
2022-12-19T19:46:58.913Z,99788.38
2022-12-19T19:49:01.490Z,99809.91
2022-12-19T19:51:04.222Z,99803.44
2022-12-19T19:53:07.037Z,99806.41
2022-12-19T19:55:10.647Z,99814.53
2022-12-19T19:57:13.347Z,99817.03
2022-12-19T19:59:15.954Z,99806.44
2022-12-19T20:01:18.733Z,99821.81
2022-12-19T20:03:23.261Z,99802.28
2022-12-19T20:05:26.253Z,99806.78
2022-12-19T20:07:29.109Z,99809.41
2022-12-19T20:09:31.842Z,99806.94
2022-12-19T20:11:34.445Z,99806.44
2022-12-19T20:13:37.854Z,99810.91
2022-12-19T20:15:45.994Z,99812.72
2022-12-19T20:17:53.043Z,99821.31
2022-12-19T20:19:55.661Z,99833.59
2022-12-19T20:22:00.369Z,99823.81
2022-12-19T20:24:02.971Z,99816.69
2022-12-19T20:26:06.658Z,99826.97
2022-12-19T20:28:09.658Z,99817.50
2022-12-19T20:30:12.684Z,99817.50
2022-12-19T20:32:15.429Z,99825.31
2022-12-19T20:34:20.080Z,99820.81
2022-12-19T20:36:23.474Z,99811.25
2022-12-19T20:38:26.091Z,99830.13
2022-12-19T20:40:29.009Z,99826.47
2022-12-19T20:42:31.660Z,99819.53
2022-12-19T20:44:34.276Z,99829.94
2022-12-19T20:46:37.068Z,99827.44
2022-12-19T20:48:40.147Z,99832.59
2022-12-19T20:50:43.354Z,99835.06
2022-12-19T20:52:46.142Z,99834.41
2022-12-19T20:54:48.658Z,99831.56
2022-12-19T20:56:52.338Z,99835.72
2022-12-19T20:58:55.067Z,99825.78
2022-12-19T21:01:11.845Z,99817.50
2022-12-19T21:03:27.575Z,99834.41
2022-12-19T21:05:37.637Z,99829.25
2022-12-19T21:07:40.286Z,99824.81
2022-12-19T21:09:45.925Z,99828.09
2022-12-19T21:11:49.367Z,99832.09
2022-12-19T21:14:00.702Z,99825.78
2022-12-19T21:16:11.135Z,99823.81
2022-12-19T21:18:23.594Z,99830.59
2022-12-19T21:20:34.379Z,99834.06
2022-12-19T21:22:41.735Z,99828.78
2022-12-19T21:25:01.339Z,99822.00
2022-12-19T21:27:28.201Z,99832.59
2022-12-19T21:29:33.917Z,99829.94
2022-12-19T21:31:53.073Z,99824.66
2022-12-19T21:33:59.623Z,99835.53
2022-12-19T21:36:08.884Z,99829.09
2022-12-19T21:38:15.063Z,99834.03
2022-12-19T21:40:49.078Z,99828.94
2022-12-19T21:43:11.456Z,99830.91
2022-12-19T21:45:34.341Z,99838.03
2022-12-19T21:47:49.278Z,99840.69
2022-12-19T21:50:01.089Z,99838.19
2022-12-19T21:52:06.882Z,99831.75
2022-12-19T21:54:10.297Z,99839.81
2022-12-19T21:56:21.760Z,99849.41
2022-12-19T21:58:24.381Z,99841.00
2022-12-19T22:00:26.983Z,99855.38
2022-12-19T22:02:29.897Z,99856.03
2022-12-19T22:04:49.519Z,99837.03
2022-12-19T22:06:52.224Z,99849.09
2022-12-19T22:08:58.584Z,99845.28
2022-12-19T22:11:04.439Z,99827.25
2022-12-19T22:13:10.561Z,99842.28
2022-12-19T22:15:16.214Z,99831.72
2022-12-19T22:17:27.528Z,99842.09
2022-12-19T22:19:36.048Z,99849.06
2022-12-19T22:21:38.713Z,99835.31
2022-12-19T22:23:43.946Z,99848.88
2022-12-19T22:26:16.537Z,99848.22
2022-12-19T22:28:25.043Z,99842.59
2022-12-19T22:30:35.895Z,99833.97
2022-12-19T22:32:38.672Z,99849.84
2022-12-19T22:34:50.197Z,99845.72
2022-12-19T22:36:53.144Z,99846.34
2022-12-19T22:38:56.653Z,99851.63
2022-12-19T22:41:08.592Z,99857.59
2022-12-19T22:43:11.204Z,99863.88
2022-12-19T22:45:13.680Z,99851.81
2022-12-19T22:47:16.239Z,99861.38
2022-12-19T22:49:19.059Z,99864.34
2022-12-19T22:51:21.821Z,99870.31
2022-12-19T22:53:24.572Z,99861.53
2022-12-19T22:55:27.206Z,99863.88
2022-12-19T22:57:29.813Z,99880.03
2022-12-19T22:59:32.472Z,99874.94
2022-12-19T23:01:38.349Z,99879.22
2022-12-19T23:03:41.988Z,99869.31
2022-12-19T23:05:51.588Z,99867.50
2022-12-19T23:07:54.586Z,99873.47
2022-12-19T23:09:57.207Z,99875.59
2022-12-19T23:11:59.893Z,99866.84
2022-12-19T23:14:04.897Z,99877.91
2022-12-19T23:16:08.724Z,99871.78
2022-12-19T23:18:11.529Z,99876.41
2022-12-19T23:20:14.314Z,99869.16
2022-12-19T23:22:16.915Z,99877.56
2022-12-19T23:24:20.823Z,99884.88
2022-12-19T23:26:27.854Z,99883.19
2022-12-19T23:28:30.469Z,99887.84
2022-12-19T23:30:33.225Z,99888.94
2022-12-19T23:32:35.780Z,99885.47
2022-12-19T23:34:38.383Z,99884.81
2022-12-19T23:39:04.351Z,99876.84
2022-12-19T23:41:09.008Z,99881.00
2022-12-19T23:43:11.760Z,99882.63
2022-12-19T23:45:14.546Z,99886.78
2022-12-19T23:47:17.276Z,99881.88
2022-12-19T23:49:19.848Z,99875.59
2022-12-19T23:51:27.582Z,99886.78
2022-12-19T23:53:31.963Z,99888.94
2022-12-19T23:55:36.282Z,99880.31
2022-12-19T23:57:38.784Z,99894.69
2022-12-19T23:59:41.426Z,99877.81
